createdAt,value
2018-08-04T00:00:42.378Z,84.64
2018-08-04T00:03:46.662Z,84.91
2018-08-04T00:06:51.676Z,85.24
2018-08-04T00:09:56.009Z,85.34
2018-08-04T00:13:00.280Z,85.21
2018-08-04T00:16:04.575Z,86.73
2018-08-04T00:19:09.489Z,85.82
2018-08-04T00:22:13.735Z,86.09
2018-08-04T00:25:18.032Z,86.33
2018-08-04T00:28:22.387Z,85.91
2018-08-04T00:31:26.679Z,85.29
2018-08-04T00:34:31.449Z,86.94
2018-08-04T00:37:35.862Z,86.30
2018-08-04T00:40:40.839Z,86.29
2018-08-04T00:43:46.110Z,86.66
2018-08-04T00:46:50.429Z,86.32
2018-08-04T00:49:54.686Z,85.62
2018-08-04T00:52:59.030Z,86.16
2018-08-04T00:56:03.504Z,86.15
2018-08-04T00:59:08.402Z,86.53
2018-08-04T01:02:12.482Z,86.09
2018-08-04T01:05:17.490Z,86.28
2018-08-04T01:08:21.846Z,85.60
2018-08-04T01:11:26.290Z,86.30
2018-08-04T01:14:30.572Z,86.79
2018-08-04T01:17:34.880Z,86.25
2018-08-04T01:20:39.173Z,86.24
2018-08-04T01:23:43.799Z,86.92
2018-08-04T01:26:48.110Z,86.97
2018-08-04T01:29:52.426Z,86.94
2018-08-04T01:32:56.697Z,87.03
2018-08-04T01:36:00.952Z,87.50
2018-08-04T01:39:07.513Z,87.17
2018-08-04T01:42:12.487Z,86.94
2018-08-04T01:45:16.840Z,87.24
2018-08-04T01:48:21.134Z,87.04
2018-08-04T01:51:26.636Z,86.70
2018-08-04T01:54:31.026Z,86.68
2018-08-04T01:57:35.413Z,86.52
2018-08-04T02:00:39.775Z,86.43
2018-08-04T02:03:43.852Z,87.12
2018-08-04T02:06:48.121Z,87.27
2018-08-04T02:09:52.550Z,86.97
2018-08-04T02:12:56.821Z,87.38
2018-08-04T02:16:01.157Z,86.98
2018-08-04T02:19:05.186Z,88.09
2018-08-04T02:22:09.470Z,87.02
2018-08-04T02:25:13.733Z,86.74
2018-08-04T02:28:18.021Z,86.63
2018-08-04T02:31:22.279Z,85.94
2018-08-04T02:34:26.559Z,86.21
2018-08-04T02:37:30.832Z,86.90
2018-08-04T02:40:35.101Z,86.84
2018-08-04T02:43:39.386Z,87.09
2018-08-04T02:46:43.640Z,86.36
2018-08-04T02:49:47.955Z,86.74
2018-08-04T02:52:52.229Z,86.41
2018-08-04T02:55:56.511Z,86.68
2018-08-04T02:59:00.862Z,86.34
2018-08-04T03:02:04.896Z,86.61
2018-08-04T03:05:09.693Z,86.60
2018-08-04T03:08:13.996Z,86.74
2018-08-04T03:11:18.264Z,86.74
2018-08-04T03:14:23.167Z,87.16
2018-08-04T03:17:27.456Z,87.24
2018-08-04T03:20:31.717Z,87.27
2018-08-04T03:23:35.809Z,87.08
2018-08-04T03:26:41.019Z,87.86
2018-08-04T03:29:45.338Z,88.31
2018-08-04T03:32:49.706Z,87.68
2018-08-04T03:35:54.126Z,86.41
2018-08-04T03:38:58.461Z,87.03
2018-08-04T03:42:02.890Z,87.58
2018-08-04T03:45:07.189Z,87.53
2018-08-04T03:48:11.542Z,87.57
2018-08-04T03:51:15.842Z,86.64
2018-08-04T03:54:20.613Z,86.82
2018-08-04T03:57:24.923Z,86.83
2018-08-04T04:00:29.204Z,86.88
2018-08-04T04:03:33.576Z,86.75
2018-08-04T04:06:38.734Z,86.56
2018-08-04T04:09:43.149Z,86.22
2018-08-04T04:12:47.652Z,86.38
2018-08-04T04:15:51.713Z,85.99
2018-08-04T04:18:56.033Z,86.09
2018-08-04T04:22:00.402Z,85.99
2018-08-04T04:25:05.247Z,86.49
2018-08-04T04:28:09.799Z,85.86
2018-08-04T04:31:14.363Z,86.11
2018-08-04T04:34:18.837Z,85.90
2018-08-04T04:37:24.240Z,85.31
2018-08-04T04:40:28.573Z,85.22
2018-08-04T04:43:32.906Z,85.67
2018-08-04T04:46:38.080Z,84.94
2018-08-04T04:49:43.381Z,84.95
2018-08-04T04:52:47.654Z,83.93
2018-08-04T04:55:52.034Z,83.41
2018-08-04T04:58:57.249Z,83.33
2018-08-04T05:02:01.651Z,82.69
2018-08-04T05:05:08.068Z,82.58
2018-08-04T05:08:12.304Z,81.85
2018-08-04T05:11:16.591Z,81.24
2018-08-04T05:14:20.976Z,80.42
2018-08-04T05:17:25.334Z,80.59
2018-08-04T05:20:29.761Z,79.72
2018-08-04T05:23:34.108Z,79.19
2018-08-04T05:26:38.452Z,79.20
2018-08-04T05:29:42.758Z,79.41
2018-08-04T05:32:47.066Z,79.04
2018-08-04T05:35:51.402Z,78.07
2018-08-04T05:38:55.712Z,78.84
2018-08-04T05:42:00.018Z,78.07
2018-08-04T05:45:04.815Z,78.02
2018-08-04T05:48:09.355Z,79.73
2018-08-04T05:51:13.813Z,77.91
2018-08-04T05:54:18.481Z,77.72
2018-08-04T05:57:23.097Z,77.54
2018-08-04T06:00:27.606Z,74.93
2018-08-04T06:03:31.886Z,72.83
2018-08-04T06:06:36.668Z,69.84
2018-08-04T06:09:41.288Z,65.18
2018-08-04T06:12:46.928Z,61.22
2018-08-04T06:15:51.569Z,58.09
2018-08-04T06:18:56.380Z,54.79
2018-08-04T06:22:00.780Z,53.73
2018-08-04T06:25:05.571Z,53.72
2018-08-04T06:28:09.966Z,57.19
2018-08-04T06:31:14.306Z,54.91
2018-08-04T06:34:18.772Z,53.96
2018-08-04T06:37:23.399Z,51.48
2018-08-04T06:40:28.949Z,49.75
2018-08-04T06:43:33.357Z,47.83
2018-08-04T06:46:37.652Z,49.46
2018-08-04T06:49:42.069Z,50.43
2018-08-04T06:52:46.466Z,51.64
2018-08-04T06:55:50.793Z,49.05
2018-08-04T06:58:55.201Z,47.41
2018-08-04T07:01:59.700Z,49.13
2018-08-04T07:05:04.106Z,49.39
2018-08-04T07:08:08.551Z,47.78
2018-08-04T07:11:13.449Z,54.91
2018-08-04T07:14:17.849Z,51.44
2018-08-04T07:17:22.242Z,48.77
2018-08-04T07:20:26.938Z,49.27
2018-08-04T07:23:31.480Z,47.66
2018-08-04T07:26:36.073Z,55.34
2018-08-04T07:29:40.971Z,54.26
2018-08-04T07:32:47.764Z,54.39
2018-08-04T07:35:52.213Z,51.06
2018-08-04T07:38:56.732Z,51.74
2018-08-04T07:42:01.096Z,49.36
2018-08-04T07:45:05.756Z,49.47
2018-08-04T07:48:10.342Z,49.73
2018-08-04T07:51:14.805Z,51.74
2018-08-04T07:54:19.109Z,51.69
2018-08-04T07:57:23.828Z,51.63
2018-08-04T08:00:28.536Z,49.16
2018-08-04T08:03:32.986Z,47.61
2018-08-04T08:06:37.298Z,48.21
2018-08-04T08:09:41.718Z,46.97
2018-08-04T08:12:47.014Z,47.12
2018-08-04T08:15:51.984Z,48.30
2018-08-04T08:18:56.432Z,46.88
2018-08-04T08:22:01.944Z,45.46
2018-08-04T08:25:07.015Z,49.62
2018-08-04T08:28:11.614Z,47.75
2018-08-04T08:31:16.121Z,46.90
2018-08-04T08:34:20.733Z,46.24
2018-08-04T08:37:25.210Z,47.86
2018-08-04T08:40:30.476Z,48.46
2018-08-04T08:43:34.906Z,49.01
2018-08-04T08:46:40.375Z,47.48
2018-08-04T08:49:46.232Z,45.22
2018-08-04T08:52:52.678Z,45.40
2018-08-04T08:55:58.547Z,45.10
2018-08-04T08:59:04.202Z,45.64
2018-08-04T09:02:10.196Z,45.39
2018-08-04T09:05:15.964Z,43.20
2018-08-04T09:08:21.759Z,43.75
2018-08-04T09:11:29.023Z,41.71
2018-08-04T09:14:35.499Z,43.50
2018-08-04T09:17:40.975Z,41.15
2018-08-04T09:20:47.084Z,41.75
2018-08-04T09:23:52.616Z,40.75
2018-08-04T09:26:58.982Z,43.45
2018-08-04T09:30:04.552Z,41.46
2018-08-04T09:33:10.148Z,41.00
2018-08-04T09:36:16.078Z,39.41
2018-08-04T09:39:21.823Z,40.62
2018-08-04T09:42:27.206Z,36.46
2018-08-04T09:45:32.758Z,39.48
2018-08-04T09:48:38.614Z,37.77
2018-08-04T09:51:44.172Z,37.53
2018-08-04T09:54:49.688Z,37.73
2018-08-04T09:57:54.199Z,37.52
2018-08-04T10:01:03.927Z,36.44
2018-08-04T10:04:08.752Z,34.71
2018-08-04T10:07:14.260Z,34.53
2018-08-04T10:10:18.720Z,35.01
2018-08-04T10:13:22.898Z,37.79
2018-08-04T10:16:27.342Z,36.82
2018-08-04T10:19:31.904Z,35.53
2018-08-04T10:22:36.417Z,33.80
2018-08-04T10:25:41.513Z,34.44
2018-08-04T10:28:45.858Z,32.70
2018-08-04T10:31:49.984Z,34.38
2018-08-04T10:34:54.922Z,34.87
2018-08-04T10:37:59.421Z,34.75
2018-08-04T10:41:03.727Z,33.63
2018-08-04T10:44:08.858Z,35.48
2018-08-04T10:47:13.277Z,34.61
2018-08-04T10:50:17.821Z,34.19
2018-08-04T10:53:22.187Z,32.19
2018-08-04T10:56:26.504Z,31.80
2018-08-04T10:59:31.465Z,31.48
2018-08-04T11:02:35.786Z,33.32
2018-08-04T11:05:40.456Z,36.32
2018-08-04T11:08:44.944Z,34.55
2018-08-04T11:11:49.379Z,34.48
2018-08-04T11:14:53.689Z,32.19
2018-08-04T11:17:58.054Z,31.46
2018-08-04T11:21:02.726Z,31.80
2018-08-04T11:24:07.374Z,33.33
2018-08-04T11:27:11.758Z,33.38
2018-08-04T11:30:16.417Z,34.63
2018-08-04T11:33:21.411Z,32.36
2018-08-04T11:36:25.902Z,33.07
2018-08-04T11:39:30.311Z,31.88
2018-08-04T11:42:34.634Z,34.10
2018-08-04T11:45:39.318Z,31.38
2018-08-04T11:48:44.038Z,31.27
2018-08-04T11:51:48.421Z,30.77
2018-08-04T11:54:53.402Z,32.36
2018-08-04T11:57:57.540Z,32.04
2018-08-04T12:01:02.168Z,30.98
2018-08-04T12:04:06.782Z,30.58
2018-08-04T12:07:11.691Z,31.38
2018-08-04T12:10:16.176Z,30.11
2018-08-04T12:13:20.491Z,30.50
2018-08-04T12:16:25.133Z,31.24
2018-08-04T12:19:29.545Z,30.82
2018-08-04T12:22:33.651Z,29.68
2018-08-04T12:25:37.974Z,30.32
2018-08-04T12:28:42.409Z,29.17
2018-08-04T12:31:46.693Z,28.91
2018-08-04T12:34:51.918Z,29.46
2018-08-04T12:37:56.633Z,29.21
2018-08-04T12:41:01.318Z,30.04
2018-08-04T12:44:07.482Z,28.67
2018-08-04T12:47:11.904Z,28.96
2018-08-04T12:50:16.248Z,26.55
2018-08-04T12:53:20.935Z,26.55
2018-08-04T12:56:25.286Z,26.78
2018-08-04T12:59:29.970Z,27.84
2018-08-04T13:02:34.319Z,27.78
2018-08-04T13:05:38.763Z,29.67
2018-08-04T13:08:43.158Z,28.62
2018-08-04T13:11:47.605Z,28.65
2018-08-04T13:14:52.012Z,27.54
2018-08-04T13:17:56.458Z,29.04
2018-08-04T13:21:00.871Z,28.81
2018-08-04T13:24:05.457Z,30.70
2018-08-04T13:27:10.081Z,28.88
2018-08-04T13:30:14.808Z,29.20
2018-08-04T13:33:19.660Z,28.89
2018-08-04T13:36:24.293Z,26.34
2018-08-04T13:39:28.646Z,28.16
2018-08-04T13:42:33.604Z,26.52
2018-08-04T13:45:37.970Z,26.97
2018-08-04T13:48:42.909Z,24.78
2018-08-04T13:51:47.498Z,24.99
2018-08-04T13:54:52.057Z,25.86
2018-08-04T13:57:56.426Z,25.58
2018-08-04T14:01:00.803Z,27.31
2018-08-04T14:04:05.531Z,27.53
2018-08-04T14:07:09.922Z,26.58
2018-08-04T14:10:14.297Z,28.40
2018-08-04T14:13:18.586Z,26.78
2018-08-04T14:16:22.956Z,26.82
2018-08-04T14:19:27.719Z,26.89
2018-08-04T14:22:32.214Z,27.23
2018-08-04T14:25:36.569Z,27.82
2018-08-04T14:28:41.614Z,27.56
2018-08-04T14:31:45.926Z,28.83
2018-08-04T14:34:50.328Z,28.70
2018-08-04T14:37:54.867Z,28.57
2018-08-04T14:40:59.361Z,29.44
2018-08-04T14:44:03.770Z,31.54
2018-08-04T14:47:08.219Z,30.59
2018-08-04T14:50:12.523Z,29.25
2018-08-04T14:53:16.902Z,28.31
2018-08-04T14:56:21.200Z,28.71
2018-08-04T14:59:25.924Z,29.70
2018-08-04T15:02:30.195Z,27.66
2018-08-04T15:05:34.453Z,29.30
2018-08-04T15:08:38.891Z,28.87
2018-08-04T15:11:43.311Z,29.06
2018-08-04T15:14:48.206Z,30.09
2018-08-04T15:17:52.765Z,29.60
2018-08-04T15:20:57.118Z,29.07
2018-08-04T15:24:01.766Z,29.46
2018-08-04T15:27:06.249Z,27.26
2018-08-04T15:30:10.604Z,29.23
2018-08-04T15:33:14.960Z,30.39
2018-08-04T15:36:21.454Z,29.49
2018-08-04T15:39:25.709Z,31.94
2018-08-04T15:42:30.047Z,30.65
2018-08-04T15:45:34.678Z,30.03
2018-08-04T15:48:39.088Z,30.09
2018-08-04T15:51:43.490Z,32.08
2018-08-04T15:54:47.957Z,32.79
2018-08-04T15:57:53.488Z,31.83
2018-08-04T16:00:58.025Z,31.90
2018-08-04T16:04:03.113Z,32.12
2018-08-04T16:07:08.302Z,32.06
2018-08-04T16:10:12.589Z,32.53
2018-08-04T16:13:16.999Z,33.04
2018-08-04T16:16:21.431Z,31.91
2018-08-04T16:19:25.812Z,32.71
2018-08-04T16:22:30.481Z,32.40
2018-08-04T16:25:35.090Z,33.28
2018-08-04T16:28:39.572Z,32.72
2018-08-04T16:31:44.392Z,33.77
2018-08-04T16:34:48.842Z,33.23
2018-08-04T16:37:53.289Z,33.30
2018-08-04T16:40:57.922Z,32.97
2018-08-04T16:44:02.517Z,32.92
2018-08-04T16:47:07.270Z,32.68
2018-08-04T16:50:11.878Z,33.10
2018-08-04T16:53:16.978Z,33.52
2018-08-04T16:56:21.550Z,32.54
2018-08-04T16:59:27.267Z,31.21
2018-08-04T17:02:31.579Z,30.72
2018-08-04T17:05:36.486Z,34.14
2018-08-04T17:08:41.074Z,35.43
2018-08-04T17:11:46.248Z,36.59
2018-08-04T17:14:50.591Z,36.86
2018-08-04T17:17:55.130Z,36.74
2018-08-04T17:20:59.807Z,38.02
2018-08-04T17:24:04.257Z,38.81
2018-08-04T17:27:08.706Z,40.03
2018-08-04T17:30:14.300Z,41.15
2018-08-04T17:33:18.700Z,41.12
2018-08-04T17:36:23.022Z,42.44
2018-08-04T17:39:27.531Z,41.72
2018-08-04T17:42:31.934Z,41.92
2018-08-04T17:45:36.848Z,41.93
2018-08-04T17:48:41.211Z,42.43
2018-08-04T17:51:45.864Z,42.69
2018-08-04T17:54:50.625Z,42.91
2018-08-04T17:57:55.915Z,45.13
2018-08-04T18:01:00.378Z,44.23
2018-08-04T18:04:05.272Z,44.54
2018-08-04T18:07:10.548Z,44.70
2018-08-04T18:10:16.423Z,46.75
2018-08-04T18:13:21.765Z,47.22
2018-08-04T18:16:26.415Z,48.15
2018-08-04T18:19:30.752Z,47.14
2018-08-04T18:22:35.460Z,47.04
2018-08-04T18:25:40.441Z,47.42
2018-08-04T18:28:45.135Z,47.59
2018-08-04T18:31:49.467Z,46.91
2018-08-04T18:34:53.823Z,47.42
2018-08-04T18:37:58.272Z,48.04
2018-08-04T18:41:02.552Z,48.09
2018-08-04T18:44:07.011Z,48.64
2018-08-04T18:47:11.782Z,49.11
2018-08-04T18:50:16.337Z,50.14
2018-08-04T18:53:20.656Z,49.67
2018-08-04T18:56:25.174Z,50.16
2018-08-04T18:59:30.611Z,49.83
2018-08-04T19:02:35.131Z,50.61
2018-08-04T19:05:39.491Z,51.24
2018-08-04T19:08:44.173Z,51.45
2018-08-04T19:11:49.889Z,51.26
2018-08-04T19:14:54.329Z,52.03
2018-08-04T19:17:58.790Z,53.43
2018-08-04T19:21:03.602Z,52.28
2018-08-04T19:24:08.070Z,52.65
2018-08-04T19:27:17.070Z,52.61
2018-08-04T19:30:21.645Z,53.44
2018-08-04T19:33:25.965Z,53.71
2018-08-04T19:36:30.325Z,54.40
2018-08-04T19:39:35.705Z,56.17
2018-08-04T19:42:40.257Z,55.58
2018-08-04T19:45:44.913Z,56.21
2018-08-04T19:48:49.175Z,57.04
2018-08-04T19:51:53.409Z,57.30
2018-08-04T19:54:57.729Z,57.00
2018-08-04T19:58:02.361Z,58.13
2018-08-04T20:01:06.838Z,56.99
2018-08-04T20:04:11.190Z,57.14
2018-08-04T20:07:15.563Z,56.83
2018-08-04T20:10:21.213Z,57.67
2018-08-04T20:13:25.618Z,57.71
2018-08-04T20:16:31.209Z,57.58
2018-08-04T20:19:36.119Z,58.19
2018-08-04T20:22:41.039Z,58.66
2018-08-04T20:25:45.426Z,60.19
2018-08-04T20:28:50.327Z,59.59
2018-08-04T20:31:54.898Z,59.70
2018-08-04T20:34:59.995Z,60.17
2018-08-04T20:38:05.038Z,59.75
2018-08-04T20:41:09.469Z,60.23
2018-08-04T20:44:16.220Z,60.35
2018-08-04T20:47:21.462Z,61.12
2018-08-04T20:50:26.713Z,60.82
2018-08-04T20:53:31.936Z,62.30
2018-08-04T20:56:37.350Z,62.71
2018-08-04T20:59:42.392Z,64.08
2018-08-04T21:02:50.579Z,64.19
2018-08-04T21:05:55.993Z,67.26
2018-08-04T21:09:02.211Z,66.91
2018-08-04T21:12:08.845Z,66.95
2018-08-04T21:15:14.161Z,67.69
2018-08-04T21:18:21.467Z,67.06
2018-08-04T21:21:26.956Z,67.12
2018-08-04T21:24:32.288Z,68.28
2018-08-04T21:27:37.350Z,67.30
2018-08-04T21:30:42.564Z,67.37
2018-08-04T21:33:48.629Z,67.57
2018-08-04T21:36:53.283Z,67.25
2018-08-04T21:39:58.274Z,67.43
2018-08-04T21:43:05.227Z,69.27
2018-08-04T21:46:11.156Z,69.32
2018-08-04T21:49:16.884Z,69.33
2018-08-04T21:52:22.055Z,69.22
2018-08-04T21:55:27.026Z,68.92
2018-08-04T21:58:32.046Z,69.31
2018-08-04T22:01:37.530Z,69.82
2018-08-04T22:04:42.691Z,69.57
2018-08-04T22:08:04.399Z,69.45
2018-08-04T22:11:09.811Z,69.43
2018-08-04T22:14:16.552Z,69.83
2018-08-04T22:17:21.668Z,70.78
2018-08-04T22:20:26.824Z,69.95
2018-08-04T22:23:32.084Z,70.26
2018-08-04T22:26:36.621Z,69.57
2018-08-04T22:29:41.052Z,70.80
2018-08-04T22:32:46.005Z,70.87
2018-08-04T22:35:50.448Z,70.48
2018-08-04T22:38:55.191Z,70.05
2018-08-04T22:41:59.511Z,69.73
2018-08-04T22:46:23.006Z,70.57
2018-08-04T22:49:27.377Z,70.16
2018-08-04T22:52:32.686Z,70.25
2018-08-04T22:55:38.273Z,70.02
2018-08-04T22:58:44.058Z,71.42
2018-08-04T23:01:48.716Z,70.22
2018-08-04T23:04:54.167Z,70.44
2018-08-04T23:07:59.034Z,70.77
2018-08-04T23:11:03.689Z,70.16
2018-08-04T23:14:08.400Z,70.22
2018-08-04T23:17:12.872Z,70.39
2018-08-04T23:20:18.045Z,69.92
2018-08-04T23:23:22.304Z,70.49
2018-08-04T23:26:26.674Z,70.14
2018-08-04T23:29:31.052Z,70.80
2018-08-04T23:32:35.654Z,70.66
2018-08-04T23:35:39.908Z,70.53
2018-08-04T23:38:44.182Z,70.26
2018-08-04T23:41:48.439Z,70.84
2018-08-04T23:44:53.171Z,70.48
2018-08-04T23:47:57.415Z,69.89
2018-08-04T23:51:01.834Z,71.11
2018-08-04T23:54:06.465Z,70.58
2018-08-04T23:57:10.746Z,69.90
